createdAt,value
2024-01-28T00:01:38.801Z,8
2024-01-28T00:04:10.777Z,12
2024-01-28T00:06:40.561Z,8
2024-01-28T00:11:59.332Z,8
2024-01-28T00:14:29.749Z,8
2024-01-28T00:16:59.964Z,8
2024-01-28T00:19:30.465Z,11
2024-01-28T00:22:00.633Z,12
2024-01-28T00:24:30.902Z,12
2024-01-28T00:27:00.822Z,13
2024-01-28T00:29:31.011Z,12
2024-01-28T00:32:01.892Z,10
2024-01-28T00:34:32.608Z,25
2024-01-28T00:37:02.828Z,19
2024-01-28T00:39:33.055Z,16
2024-01-28T00:42:05.205Z,40
2024-01-28T00:44:35.668Z,36
2024-01-28T00:47:05.731Z,44
2024-01-28T00:49:37.103Z,33
2024-01-28T00:52:07.350Z,32
2024-01-28T00:54:37.391Z,36
2024-01-28T00:57:07.645Z,39
2024-01-28T00:59:37.866Z,32
2024-01-28T01:02:08.205Z,28
2024-01-28T01:04:38.281Z,24
2024-01-28T01:07:08.422Z,20
2024-01-28T01:09:38.449Z,19
2024-01-28T01:12:08.677Z,12
2024-01-28T01:14:39.033Z,16
2024-01-28T01:17:09.258Z,16
2024-01-28T01:19:39.931Z,12
2024-01-28T01:22:10.007Z,12
2024-01-28T01:24:40.313Z,12
2024-01-28T01:27:10.357Z,13
2024-01-28T01:29:40.972Z,8
2024-01-28T01:32:11.345Z,12
2024-01-28T01:34:41.531Z,10
2024-01-28T01:37:11.688Z,12
2024-01-28T01:39:41.780Z,10
2024-01-28T01:42:11.812Z,12
2024-01-28T01:44:42.151Z,12
2024-01-28T01:47:12.308Z,12
2024-01-28T01:49:43.056Z,12
2024-01-28T01:52:13.138Z,12
2024-01-28T01:54:43.170Z,8
2024-01-28T01:57:13.224Z,12
2024-01-28T01:59:43.653Z,12
2024-01-28T02:02:13.812Z,8
2024-01-28T02:04:44.679Z,11
2024-01-28T02:07:15.687Z,8
2024-01-28T02:09:46.685Z,9
2024-01-28T02:12:17.135Z,12
2024-01-28T02:14:47.753Z,19
2024-01-28T02:17:19.939Z,13
2024-01-28T02:19:50.654Z,12
2024-01-28T02:22:21.633Z,9
2024-01-28T02:24:51.730Z,12
2024-01-28T02:27:22.240Z,12
2024-01-28T02:29:50.951Z,11
2024-01-28T02:32:21.516Z,12
2024-01-28T02:34:52.087Z,12
2024-01-28T02:37:23.136Z,12
2024-01-28T02:39:54.855Z,12
2024-01-28T02:42:25.394Z,12
2024-01-28T02:44:55.671Z,12
2024-01-28T02:47:26.386Z,12
2024-01-28T02:49:58.275Z,13
2024-01-28T02:52:28.870Z,12
2024-01-28T02:55:02.577Z,13
2024-01-28T02:57:32.753Z,12
2024-01-28T03:00:02.983Z,12
2024-01-28T03:02:33.369Z,12
2024-01-28T03:05:03.636Z,15
2024-01-28T03:07:34.876Z,12
2024-01-28T03:10:05.397Z,12
2024-01-28T03:12:36.076Z,12
2024-01-28T03:15:06.797Z,12
2024-01-28T03:17:37.354Z,12
2024-01-28T03:20:07.764Z,12
2024-01-28T03:22:38.190Z,12
2024-01-28T03:25:10.229Z,14
2024-01-28T03:27:40.506Z,8
2024-01-28T03:30:10.993Z,9
2024-01-28T03:32:43.282Z,12
2024-01-28T03:35:11.669Z,12
2024-01-28T03:37:42.601Z,12
2024-01-28T03:40:13.239Z,11
2024-01-28T03:42:43.917Z,12
2024-01-28T03:45:14.284Z,12
2024-01-28T03:47:45.617Z,12
2024-01-28T03:50:14.939Z,13
2024-01-28T03:52:45.638Z,12
2024-01-28T03:55:15.912Z,13
2024-01-28T03:57:46.319Z,12
2024-01-28T04:00:16.760Z,11
2024-01-28T04:02:49.006Z,16
2024-01-28T04:05:19.620Z,16
2024-01-28T04:07:50.897Z,13
2024-01-28T04:10:21.242Z,8
2024-01-28T04:12:51.899Z,8
2024-01-28T04:15:22.164Z,9
2024-01-28T04:17:54.429Z,9
2024-01-28T04:20:25.343Z,8
2024-01-28T04:22:55.666Z,8
2024-01-28T04:25:26.801Z,12
2024-01-28T04:27:57.441Z,8
2024-01-28T04:30:27.916Z,12
2024-01-28T04:32:58.235Z,12
2024-01-28T04:35:29.337Z,12
2024-01-28T04:38:00.279Z,8
2024-01-28T04:40:30.879Z,8
2024-01-28T04:43:01.309Z,8
2024-01-28T04:45:32.220Z,8
2024-01-28T04:48:02.877Z,12
2024-01-28T04:50:33.479Z,11
2024-01-28T04:53:05.189Z,9
2024-01-28T04:55:35.623Z,12
2024-01-28T04:58:06.263Z,11
2024-01-28T05:00:36.442Z,8
2024-01-28T05:03:06.723Z,11
2024-01-28T05:05:37.257Z,8
2024-01-28T05:08:08.255Z,8
2024-01-28T05:10:38.625Z,8
2024-01-28T05:13:09.426Z,12
2024-01-28T05:15:39.860Z,9
2024-01-28T05:18:10.550Z,12
2024-01-28T05:20:40.476Z,8
2024-01-28T05:23:11.289Z,12
2024-01-28T05:25:41.962Z,12
2024-01-28T05:28:12.424Z,12
2024-01-28T05:30:42.594Z,12
2024-01-28T05:33:13.110Z,12
2024-01-28T05:35:43.534Z,12
2024-01-28T05:38:15.407Z,12
2024-01-28T05:40:45.848Z,12
2024-01-28T05:43:16.096Z,12
2024-01-28T05:45:46.405Z,12
2024-01-28T05:48:16.756Z,12
2024-01-28T05:50:47.254Z,8
2024-01-28T05:53:22.344Z,12
2024-01-28T05:55:52.819Z,12
2024-01-28T05:58:23.398Z,8
2024-01-28T06:00:54.015Z,12
2024-01-28T06:03:24.205Z,12
2024-01-28T06:05:55.376Z,12
2024-01-28T06:08:26.770Z,12
2024-01-28T06:10:57.082Z,12
2024-01-28T06:13:27.465Z,10
2024-01-28T06:15:57.784Z,8
2024-01-28T06:18:27.956Z,12
2024-01-28T06:20:58.326Z,12
2024-01-28T06:23:29.961Z,8
2024-01-28T06:26:00.230Z,8
2024-01-28T06:28:30.651Z,12
2024-01-28T06:31:01.090Z,12
2024-01-28T06:33:31.985Z,8
2024-01-28T06:36:04.541Z,12
2024-01-28T06:38:34.814Z,12
2024-01-28T06:41:05.571Z,11
2024-01-28T06:43:36.637Z,13
2024-01-28T06:46:08.070Z,12
2024-01-28T06:48:38.372Z,12
2024-01-28T06:51:08.760Z,12
2024-01-28T06:53:39.168Z,12
2024-01-28T06:56:09.969Z,12
2024-01-28T06:58:40.541Z,12
2024-01-28T07:01:10.630Z,12
2024-01-28T07:03:41.082Z,12
2024-01-28T07:06:11.535Z,16
2024-01-28T07:08:42.662Z,16
2024-01-28T07:11:13.404Z,16
2024-01-28T07:13:43.836Z,14
2024-01-28T07:16:14.517Z,16
2024-01-28T07:18:44.752Z,16
2024-01-28T07:21:15.165Z,12
2024-01-28T07:23:45.213Z,12
2024-01-28T07:26:14.176Z,12
2024-01-28T07:28:44.385Z,12
2024-01-28T07:31:14.910Z,12
2024-01-28T07:33:45.431Z,15
2024-01-28T07:36:15.480Z,16
2024-01-28T07:38:46.712Z,12
2024-01-28T07:41:17.207Z,16
2024-01-28T07:43:48.436Z,12
2024-01-28T07:46:19.889Z,13
2024-01-28T07:48:50.404Z,16
2024-01-28T07:51:21.520Z,13
2024-01-28T07:53:52.539Z,17
2024-01-28T07:56:23.253Z,12
2024-01-28T07:58:53.359Z,16
2024-01-28T08:01:24.095Z,18
2024-01-28T08:03:54.646Z,15
2024-01-28T08:06:25.598Z,16
2024-01-28T08:08:56.465Z,17
2024-01-28T08:11:27.481Z,15
2024-01-28T08:13:59.459Z,16
2024-01-28T08:16:29.537Z,16
2024-01-28T08:18:58.395Z,15
2024-01-28T08:21:28.440Z,18
2024-01-28T08:23:59.077Z,16
2024-01-28T08:26:29.608Z,18
2024-01-28T08:29:00.361Z,20
2024-01-28T08:31:32.320Z,16
2024-01-28T08:34:02.686Z,16
2024-01-28T08:36:34.038Z,18
2024-01-28T08:39:04.002Z,16
2024-01-28T08:41:36.355Z,20
2024-01-28T08:44:05.633Z,16
2024-01-28T08:46:38.837Z,16
2024-01-28T08:49:09.046Z,15
2024-01-28T08:51:39.768Z,18
2024-01-28T08:54:10.519Z,13
2024-01-28T08:56:40.861Z,16
2024-01-28T08:59:13.305Z,12
2024-01-28T09:01:44.002Z,15
2024-01-28T09:04:15.170Z,16
2024-01-28T09:06:45.437Z,16
2024-01-28T09:09:15.770Z,16
2024-01-28T09:11:45.814Z,12
2024-01-28T09:14:17.428Z,20
2024-01-28T09:16:47.474Z,16
2024-01-28T09:19:19.124Z,17
2024-01-28T09:21:49.199Z,20
2024-01-28T09:24:19.541Z,18
2024-01-28T09:26:49.781Z,16
2024-01-28T09:29:20.575Z,21
2024-01-28T09:31:50.887Z,18
2024-01-28T09:34:21.539Z,16
2024-01-28T09:36:51.905Z,16
2024-01-28T09:39:22.564Z,20
2024-01-28T09:41:55.354Z,14
2024-01-28T09:44:32.209Z,16
2024-01-28T09:47:01.121Z,12
2024-01-28T09:49:31.375Z,12
2024-01-28T09:52:05.597Z,16
2024-01-28T09:54:36.833Z,17
2024-01-28T09:57:07.004Z,24
2024-01-28T09:59:37.249Z,20
2024-01-28T10:02:07.462Z,20
2024-01-28T10:04:38.197Z,17
2024-01-28T10:07:20.569Z,12
2024-01-28T10:09:50.350Z,16
2024-01-28T10:12:20.176Z,16
2024-01-28T10:17:40.921Z,16
2024-01-28T10:20:38.624Z,16
2024-01-28T10:23:08.772Z,16
2024-01-28T10:25:38.851Z,17
2024-01-28T10:28:09.927Z,16
2024-01-28T10:30:40.201Z,22
2024-01-28T10:33:12.029Z,17
2024-01-28T10:35:40.122Z,16
2024-01-28T10:38:10.492Z,20
2024-01-28T10:40:40.658Z,20
2024-01-28T10:43:10.971Z,21
2024-01-28T10:45:41.403Z,18
2024-01-28T10:51:03.514Z,16
2024-01-28T10:53:36.823Z,20
2024-01-28T10:56:28.056Z,16
2024-01-28T10:58:58.131Z,20
2024-01-28T11:01:30.496Z,20
2024-01-28T11:04:00.646Z,19
2024-01-28T11:06:30.761Z,16
2024-01-28T11:09:00.732Z,17
2024-01-28T11:11:30.721Z,20
2024-01-28T11:14:01.348Z,16
2024-01-28T11:16:31.155Z,16
2024-01-28T11:19:01.473Z,16
2024-01-28T11:21:31.751Z,16
2024-01-28T11:24:02.118Z,13
2024-01-28T11:26:32.261Z,16
2024-01-28T11:29:02.400Z,12
2024-01-28T11:31:32.297Z,16
2024-01-28T11:34:02.814Z,16
2024-01-28T11:36:32.979Z,16
2024-01-28T11:39:03.072Z,16
2024-01-28T11:41:33.143Z,18
2024-01-28T11:44:03.136Z,19
2024-01-28T11:46:34.606Z,17
2024-01-28T11:49:05.529Z,13
2024-01-28T11:51:36.209Z,15
2024-01-28T11:54:06.478Z,16
2024-01-28T11:56:42.958Z,12
2024-01-28T11:59:11.649Z,13
2024-01-28T12:01:41.824Z,14
2024-01-28T12:04:12.438Z,16
2024-01-28T12:06:47.101Z,16
2024-01-28T12:09:26.388Z,18
2024-01-28T12:11:56.427Z,16
2024-01-28T12:14:26.707Z,16
2024-01-28T12:19:56.210Z,16
2024-01-28T12:22:26.364Z,16
2024-01-28T12:24:55.942Z,16
2024-01-28T12:27:24.608Z,12
2024-01-28T12:29:54.483Z,15
2024-01-28T12:32:25.051Z,12
2024-01-28T12:34:55.235Z,16
2024-01-28T12:37:26.497Z,18
2024-01-28T12:39:55.433Z,16
2024-01-28T12:42:25.447Z,12
2024-01-28T12:44:55.390Z,15
2024-01-28T12:47:25.505Z,12
2024-01-28T12:49:55.595Z,16
2024-01-28T12:52:25.507Z,16
2024-01-28T12:54:56.276Z,16
2024-01-28T12:57:26.489Z,16
2024-01-28T12:59:56.572Z,16
2024-01-28T13:02:25.462Z,16
2024-01-28T13:04:55.420Z,16
2024-01-28T13:07:25.640Z,12
2024-01-28T13:09:54.196Z,18
2024-01-28T13:12:26.789Z,20
2024-01-28T13:14:56.972Z,15
2024-01-28T13:17:27.370Z,16
2024-01-28T13:19:57.587Z,16
2024-01-28T13:22:27.660Z,16
2024-01-28T13:24:56.179Z,24
2024-01-28T13:27:26.203Z,24
2024-01-28T13:29:56.631Z,20
2024-01-28T13:32:26.500Z,20
2024-01-28T13:34:57.203Z,21
2024-01-28T13:37:27.104Z,20
2024-01-28T13:39:57.443Z,21
2024-01-28T13:42:27.557Z,20
2024-01-28T13:44:58.096Z,24
2024-01-28T13:47:27.101Z,21
2024-01-28T13:49:57.301Z,24
2024-01-28T13:52:27.414Z,24
2024-01-28T13:54:57.648Z,24
2024-01-28T13:57:27.773Z,24
2024-01-28T13:59:59.761Z,20
2024-01-28T14:02:30.355Z,24
2024-01-28T14:05:00.505Z,24
2024-01-28T14:07:30.753Z,24
2024-01-28T14:10:00.610Z,23
2024-01-28T14:12:32.957Z,24
2024-01-28T14:15:02.739Z,24
2024-01-28T14:17:35.186Z,27
2024-01-28T14:20:04.696Z,24
2024-01-28T14:22:35.973Z,20
2024-01-28T14:25:18.144Z,24
2024-01-28T14:27:57.683Z,24
2024-01-28T14:30:27.891Z,24
2024-01-28T14:32:58.294Z,24
2024-01-28T14:35:28.282Z,20
2024-01-28T14:37:58.205Z,28
2024-01-28T14:40:28.441Z,28
2024-01-28T14:42:58.591Z,20
2024-01-28T14:45:28.984Z,24
2024-01-28T14:47:59.485Z,24
2024-01-28T14:50:30.134Z,24
2024-01-28T14:53:00.318Z,20
2024-01-28T14:55:30.521Z,24
2024-01-28T14:58:00.392Z,20
2024-01-28T15:00:30.686Z,23
2024-01-28T15:03:00.884Z,20
2024-01-28T15:05:31.145Z,21
2024-01-28T15:08:01.419Z,25
2024-01-28T15:10:31.701Z,19
2024-01-28T15:13:02.916Z,24
2024-01-28T15:15:33.121Z,24
2024-01-28T15:18:03.280Z,23
2024-01-28T15:20:33.229Z,24
2024-01-28T15:23:03.514Z,28
2024-01-28T15:25:33.525Z,32
2024-01-28T15:28:03.551Z,31
2024-01-28T15:30:33.756Z,32
2024-01-28T15:33:04.007Z,24
2024-01-28T15:35:34.123Z,24
2024-01-28T15:38:04.179Z,26
2024-01-28T15:40:34.323Z,27
2024-01-28T15:43:04.337Z,32
2024-01-28T15:45:34.561Z,27
2024-01-28T15:48:04.546Z,27
2024-01-28T15:50:34.730Z,24
2024-01-28T15:53:05.041Z,31
2024-01-28T15:55:35.278Z,36
2024-01-28T15:58:05.347Z,25
2024-01-28T16:00:35.785Z,25
2024-01-28T16:03:05.898Z,28
2024-01-28T16:05:36.217Z,24
2024-01-28T16:08:10.252Z,24
2024-01-28T16:10:40.702Z,24
2024-01-28T16:13:13.911Z,24
2024-01-28T16:15:50.578Z,24
2024-01-28T16:18:28.928Z,32
2024-01-28T16:21:02.235Z,25
2024-01-28T16:23:32.053Z,28
2024-01-28T16:26:08.067Z,25
2024-01-28T16:28:38.032Z,21
2024-01-28T16:31:08.042Z,24
2024-01-28T16:33:38.368Z,27
2024-01-28T16:36:08.326Z,25
2024-01-28T16:38:39.312Z,24
2024-01-28T16:41:09.530Z,27
2024-01-28T16:43:43.294Z,24
2024-01-28T16:46:13.459Z,28
2024-01-28T16:48:43.709Z,24
2024-01-28T16:51:13.532Z,27
2024-01-28T16:53:44.313Z,24
2024-01-28T16:56:14.267Z,28
2024-01-28T16:58:44.105Z,28
2024-01-28T17:01:14.295Z,28
2024-01-28T17:03:44.266Z,28
2024-01-28T17:06:14.446Z,25
2024-01-28T17:08:44.392Z,32
2024-01-28T17:11:14.542Z,29
2024-01-28T17:13:44.561Z,36
2024-01-28T17:16:14.678Z,36
2024-01-28T17:18:44.749Z,33
2024-01-28T17:21:14.737Z,33
2024-01-28T17:23:45.871Z,36
2024-01-28T17:26:15.811Z,32
2024-01-28T17:28:46.344Z,35
2024-01-28T17:31:16.611Z,35
2024-01-28T17:33:46.700Z,32
2024-01-28T17:36:16.670Z,40
2024-01-28T17:38:46.829Z,38
2024-01-28T17:41:16.823Z,33
2024-01-28T17:43:46.772Z,36
2024-01-28T17:46:16.904Z,28
2024-01-28T17:48:47.880Z,28
2024-01-28T17:51:17.915Z,28
2024-01-28T17:53:48.087Z,24
2024-01-28T17:56:18.352Z,28
2024-01-28T17:58:48.543Z,24
2024-01-28T18:01:18.505Z,28
2024-01-28T18:03:48.569Z,24
2024-01-28T18:06:18.415Z,24
2024-01-28T18:08:48.484Z,24
2024-01-28T18:11:18.837Z,24
2024-01-28T18:13:49.101Z,24
2024-01-28T18:16:19.129Z,24
2024-01-28T18:18:49.182Z,23
2024-01-28T18:21:19.392Z,25
2024-01-28T18:23:48.218Z,24
2024-01-28T18:26:18.357Z,24
2024-01-28T18:28:48.572Z,22
2024-01-28T18:31:18.778Z,26
2024-01-28T18:33:49.117Z,24
2024-01-28T18:36:19.648Z,24
2024-01-28T18:38:49.988Z,20
2024-01-28T18:41:20.285Z,24
2024-01-28T18:43:50.362Z,21
2024-01-28T18:46:20.225Z,20
2024-01-28T18:48:50.806Z,19
2024-01-28T18:51:20.710Z,18
2024-01-28T18:53:51.077Z,16
2024-01-28T18:56:21.206Z,20
2024-01-28T18:58:50.873Z,20
2024-01-28T19:01:21.144Z,18
2024-01-28T19:03:51.263Z,20
2024-01-28T19:06:21.596Z,17
2024-01-28T19:08:50.296Z,19
2024-01-28T19:11:21.448Z,20
2024-01-28T19:13:51.447Z,20
2024-01-28T19:16:21.961Z,20
2024-01-28T19:18:52.469Z,20
2024-01-28T19:21:21.310Z,20
2024-01-28T19:23:51.526Z,16
2024-01-28T19:26:21.709Z,20
2024-01-28T19:28:51.742Z,28
2024-01-28T19:31:21.661Z,32
2024-01-28T19:33:51.666Z,32
2024-01-28T19:36:21.814Z,28
2024-01-28T19:38:50.085Z,28
2024-01-28T19:41:20.028Z,32
2024-01-28T19:43:50.146Z,36
2024-01-28T19:46:20.188Z,35
2024-01-28T19:48:50.263Z,33
2024-01-28T19:51:20.012Z,32
2024-01-28T19:53:49.924Z,34
2024-01-28T19:56:20.017Z,40
2024-01-28T19:58:49.957Z,44
2024-01-28T20:01:20.265Z,40
2024-01-28T20:03:50.064Z,40
2024-01-28T20:06:27.863Z,40
2024-01-28T20:08:52.722Z,40
2024-01-28T20:11:22.591Z,52
2024-01-28T20:13:52.724Z,54
2024-01-28T20:16:22.695Z,55
2024-01-28T20:18:52.667Z,56
2024-01-28T20:21:23.853Z,58
2024-01-28T20:23:53.952Z,55
2024-01-28T20:26:24.053Z,52
2024-01-28T20:28:54.621Z,63
2024-01-28T20:31:24.698Z,49
2024-01-28T20:33:54.754Z,51
2024-01-28T20:36:24.801Z,56
2024-01-28T20:38:55.505Z,64
2024-01-28T20:41:25.468Z,72
2024-01-28T20:43:55.534Z,68
2024-01-28T20:46:25.547Z,69
2024-01-28T20:48:56.298Z,67
2024-01-28T20:51:26.414Z,68
2024-01-28T20:53:57.031Z,59
2024-01-28T20:56:27.103Z,56
2024-01-28T20:58:57.324Z,56
2024-01-28T21:01:27.577Z,48
2024-01-28T21:03:57.620Z,55
2024-01-28T21:06:35.697Z,67
2024-01-28T21:09:06.184Z,60
2024-01-28T21:11:38.009Z,56
2024-01-28T21:14:08.094Z,52
2024-01-28T21:16:38.243Z,44
2024-01-28T21:19:09.015Z,48
2024-01-28T21:21:39.153Z,44
2024-01-28T21:24:08.942Z,44
2024-01-28T21:26:37.854Z,42
2024-01-28T21:29:07.988Z,69
2024-01-28T21:31:38.170Z,79
2024-01-28T21:34:08.867Z,79
2024-01-28T21:36:40.818Z,68
2024-01-28T21:39:11.027Z,69
2024-01-28T21:41:39.739Z,72
2024-01-28T21:44:10.721Z,68
2024-01-28T21:46:41.057Z,75
2024-01-28T21:49:11.978Z,78
2024-01-28T21:51:42.797Z,77
2024-01-28T21:56:57.543Z,68
2024-01-28T21:59:29.373Z,72
2024-01-28T22:01:59.990Z,69
2024-01-28T22:04:30.061Z,76
2024-01-28T22:07:00.131Z,75
2024-01-28T22:09:30.447Z,72
2024-01-28T22:12:02.103Z,63
2024-01-28T22:14:30.463Z,64
2024-01-28T22:17:06.424Z,65
2024-01-28T22:19:37.306Z,61
2024-01-28T22:22:07.981Z,62
2024-01-28T22:24:38.092Z,65
2024-01-28T22:27:08.438Z,65
2024-01-28T22:29:38.568Z,63
2024-01-28T22:32:09.134Z,64
2024-01-28T22:34:39.913Z,76
2024-01-28T22:37:10.479Z,85
2024-01-28T22:39:40.743Z,80
2024-01-28T22:42:11.118Z,80
2024-01-28T22:44:41.884Z,80
2024-01-28T22:47:11.956Z,80
2024-01-28T22:49:42.519Z,85
2024-01-28T22:52:13.489Z,88
2024-01-28T22:54:43.588Z,84
2024-01-28T22:57:13.940Z,88
2024-01-28T22:59:44.185Z,86
2024-01-28T23:02:15.863Z,88
2024-01-28T23:04:46.651Z,84
2024-01-28T23:07:17.971Z,87
2024-01-28T23:09:48.580Z,85
2024-01-28T23:12:18.800Z,92
2024-01-28T23:14:48.713Z,96
2024-01-28T23:17:19.302Z,104
2024-01-28T23:19:50.334Z,105
2024-01-28T23:22:20.867Z,112
2024-01-28T23:24:51.881Z,108
2024-01-28T23:27:21.888Z,112
2024-01-28T23:29:52.073Z,110
2024-01-28T23:32:22.498Z,112
2024-01-28T23:34:53.065Z,104
2024-01-28T23:37:23.902Z,104
2024-01-28T23:39:54.220Z,112
2024-01-28T23:42:24.537Z,108
2024-01-28T23:44:55.235Z,104
2024-01-28T23:47:26.216Z,105
2024-01-28T23:49:56.537Z,108
2024-01-28T23:52:27.329Z,94
2024-01-28T23:54:57.659Z,99
2024-01-28T23:57:28.284Z,101
